sensor_id;sensor_type;location;lat;lon;timestamp;P1;durP1;ratioP1;P2;durP2;ratioP2
11791;SDS011;5953;52.372;9.918;2022-08-21T00:01:02;2.17;;;1.97;;
11791;SDS011;5953;52.372;9.918;2022-08-21T00:03:32;4.37;;;2.27;;
11791;SDS011;5953;52.372;9.918;2022-08-21T00:06:00;4.63;;;2.00;;
11791;SDS011;5953;52.372;9.918;2022-08-21T00:08:30;7.37;;;3.00;;
11791;SDS011;5953;52.372;9.918;2022-08-21T00:10:57;3.80;;;2.30;;
11791;SDS011;5953;52.372;9.918;2022-08-21T00:13:26;5.60;;;2.30;;
11791;SDS011;5953;52.372;9.918;2022-08-21T00:15:53;3.47;;;2.30;;
11791;SDS011;5953;52.372;9.918;2022-08-21T00:18:21;3.33;;;2.20;;
11791;SDS011;5953;52.372;9.918;2022-08-21T00:20:49;3.10;;;1.97;;
11791;SDS011;5953;52.372;9.918;2022-08-21T00:23:17;2.40;;;2.20;;
11791;SDS011;5953;52.372;9.918;2022-08-21T00:25:47;3.13;;;2.17;;
11791;SDS011;5953;52.372;9.918;2022-08-21T00:28:15;5.60;;;2.40;;
11791;SDS011;5953;52.372;9.918;2022-08-21T00:30:43;5.40;;;2.13;;
11791;SDS011;5953;52.372;9.918;2022-08-21T00:33:12;3.20;;;2.40;;
11791;SDS011;5953;52.372;9.918;2022-08-21T00:35:41;3.87;;;2.30;;
11791;SDS011;5953;52.372;9.918;2022-08-21T00:38:10;3.57;;;2.20;;
11791;SDS011;5953;52.372;9.918;2022-08-21T00:40:42;4.67;;;2.20;;
11791;SDS011;5953;52.372;9.918;2022-08-21T00:43:15;4.53;;;2.33;;
11791;SDS011;5953;52.372;9.918;2022-08-21T00:45:44;3.77;;;2.10;;
11791;SDS011;5953;52.372;9.918;2022-08-21T00:48:12;3.90;;;1.90;;
11791;SDS011;5953;52.372;9.918;2022-08-21T00:50:42;5.37;;;2.63;;
11791;SDS011;5953;52.372;9.918;2022-08-21T00:53:12;3.00;;;2.03;;
11791;SDS011;5953;52.372;9.918;2022-08-21T00:55:41;4.77;;;2.07;;
11791;SDS011;5953;52.372;9.918;2022-08-21T00:58:09;3.00;;;1.97;;
11791;SDS011;5953;52.372;9.918;2022-08-21T01:00:44;4.80;;;2.10;;
11791;SDS011;5953;52.372;9.918;2022-08-21T01:03:15;4.00;;;2.30;;
11791;SDS011;5953;52.372;9.918;2022-08-21T01:05:49;6.40;;;1.90;;
11791;SDS011;5953;52.372;9.918;2022-08-21T01:08:18;3.50;;;2.30;;
11791;SDS011;5953;52.372;9.918;2022-08-21T01:10:48;5.43;;;2.00;;
11791;SDS011;5953;52.372;9.918;2022-08-21T01:13:20;3.03;;;2.00;;
11791;SDS011;5953;52.372;9.918;2022-08-21T01:15:52;5.17;;;2.37;;
11791;SDS011;5953;52.372;9.918;2022-08-21T01:18:22;5.77;;;2.00;;
11791;SDS011;5953;52.372;9.918;2022-08-21T01:21:02;3.97;;;2.10;;
11791;SDS011;5953;52.372;9.918;2022-08-21T01:23:32;3.23;;;1.83;;
11791;SDS011;5953;52.372;9.918;2022-08-21T01:26:00;4.90;;;1.93;;
11791;SDS011;5953;52.372;9.918;2022-08-21T01:28:28;3.87;;;1.70;;
11791;SDS011;5953;52.372;9.918;2022-08-21T01:31:01;6.10;;;2.20;;
11791;SDS011;5953;52.372;9.918;2022-08-21T01:33:32;3.03;;;2.03;;
11791;SDS011;5953;52.372;9.918;2022-08-21T01:36:02;3.37;;;1.97;;
11791;SDS011;5953;52.372;9.918;2022-08-21T01:38:30;3.40;;;1.87;;
11791;SDS011;5953;52.372;9.918;2022-08-21T01:40:58;2.40;;;1.97;;
11791;SDS011;5953;52.372;9.918;2022-08-21T01:43:26;4.33;;;1.93;;
11791;SDS011;5953;52.372;9.918;2022-08-21T01:46:05;4.93;;;2.30;;
11791;SDS011;5953;52.372;9.918;2022-08-21T01:48:33;3.73;;;2.33;;
11791;SDS011;5953;52.372;9.918;2022-08-21T01:51:03;4.57;;;2.53;;
11791;SDS011;5953;52.372;9.918;2022-08-21T01:53:31;4.37;;;2.50;;
11791;SDS011;5953;52.372;9.918;2022-08-21T01:56:00;5.17;;;2.73;;
11791;SDS011;5953;52.372;9.918;2022-08-21T01:58:28;5.77;;;2.50;;
11791;SDS011;5953;52.372;9.918;2022-08-21T02:00:55;4.80;;;2.20;;
11791;SDS011;5953;52.372;9.918;2022-08-21T02:03:23;4.03;;;2.53;;
11791;SDS011;5953;52.372;9.918;2022-08-21T02:06:02;6.90;;;2.80;;
11791;SDS011;5953;52.372;9.918;2022-08-21T02:08:31;4.23;;;2.63;;
11791;SDS011;5953;52.372;9.918;2022-08-21T02:10:59;4.17;;;2.50;;
11791;SDS011;5953;52.372;9.918;2022-08-21T02:13:27;5.47;;;2.60;;
11791;SDS011;5953;52.372;9.918;2022-08-21T02:15:55;3.20;;;2.20;;
11791;SDS011;5953;52.372;9.918;2022-08-21T02:18:23;5.50;;;2.10;;
11791;SDS011;5953;52.372;9.918;2022-08-21T02:20:51;4.83;;;2.63;;
11791;SDS011;5953;52.372;9.918;2022-08-21T02:23:24;3.13;;;2.07;;
11791;SDS011;5953;52.372;9.918;2022-08-21T02:25:53;5.97;;;2.80;;
11791;SDS011;5953;52.372;9.918;2022-08-21T02:28:21;4.50;;;2.37;;
11791;SDS011;5953;52.372;9.918;2022-08-21T02:30:50;3.63;;;2.17;;
11791;SDS011;5953;52.372;9.918;2022-08-21T02:33:19;4.67;;;2.33;;
11791;SDS011;5953;52.372;9.918;2022-08-21T02:35:48;7.43;;;2.50;;
11791;SDS011;5953;52.372;9.918;2022-08-21T02:38:18;3.47;;;2.07;;
11791;SDS011;5953;52.372;9.918;2022-08-21T02:40:49;6.03;;;2.60;;
11791;SDS011;5953;52.372;9.918;2022-08-21T02:43:19;3.03;;;2.17;;
11791;SDS011;5953;52.372;9.918;2022-08-21T02:45:49;5.53;;;2.53;;
11791;SDS011;5953;52.372;9.918;2022-08-21T02:48:19;3.67;;;1.90;;
11791;SDS011;5953;52.372;9.918;2022-08-21T02:50:51;4.83;;;2.27;;
11791;SDS011;5953;52.372;9.918;2022-08-21T02:53:21;7.00;;;2.17;;
11791;SDS011;5953;52.372;9.918;2022-08-21T02:55:51;4.73;;;2.30;;
11791;SDS011;5953;52.372;9.918;2022-08-21T02:58:21;3.80;;;2.20;;
11791;SDS011;5953;52.372;9.918;2022-08-21T03:00:51;4.30;;;2.80;;
11791;SDS011;5953;52.372;9.918;2022-08-21T03:03:19;3.40;;;2.00;;
11791;SDS011;5953;52.372;9.918;2022-08-21T03:05:48;4.07;;;2.20;;
11791;SDS011;5953;52.372;9.918;2022-08-21T03:08:16;3.43;;;2.03;;
11791;SDS011;5953;52.372;9.918;2022-08-21T03:10:49;4.53;;;2.33;;
11791;SDS011;5953;52.372;9.918;2022-08-21T03:13:19;3.80;;;2.40;;
11791;SDS011;5953;52.372;9.918;2022-08-21T03:15:48;3.93;;;2.27;;
11791;SDS011;5953;52.372;9.918;2022-08-21T03:18:16;5.50;;;2.10;;
11791;SDS011;5953;52.372;9.918;2022-08-21T03:20:44;4.00;;;2.20;;
11791;SDS011;5953;52.372;9.918;2022-08-21T03:23:14;4.83;;;2.40;;
11791;SDS011;5953;52.372;9.918;2022-08-21T03:25:45;2.70;;;2.00;;
11791;SDS011;5953;52.372;9.918;2022-08-21T03:28:17;6.77;;;2.20;;
11791;SDS011;5953;52.372;9.918;2022-08-21T03:30:47;3.83;;;1.90;;
11791;SDS011;5953;52.372;9.918;2022-08-21T03:33:17;3.30;;;2.00;;
11791;SDS011;5953;52.372;9.918;2022-08-21T03:35:51;2.50;;;2.17;;
11791;SDS011;5953;52.372;9.918;2022-08-21T03:38:24;3.03;;;2.03;;
11791;SDS011;5953;52.372;9.918;2022-08-21T03:40:52;6.20;;;2.13;;
11791;SDS011;5953;52.372;9.918;2022-08-21T03:43:21;3.47;;;2.20;;
11791;SDS011;5953;52.372;9.918;2022-08-21T03:45:49;4.50;;;2.00;;
11791;SDS011;5953;52.372;9.918;2022-08-21T03:48:18;3.13;;;2.23;;
11791;SDS011;5953;52.372;9.918;2022-08-21T03:50:45;3.40;;;2.20;;
11791;SDS011;5953;52.372;9.918;2022-08-21T03:53:15;4.50;;;2.23;;
11791;SDS011;5953;52.372;9.918;2022-08-21T03:55:44;3.93;;;2.30;;
11791;SDS011;5953;52.372;9.918;2022-08-21T03:58:14;3.73;;;2.20;;
11791;SDS011;5953;52.372;9.918;2022-08-21T04:00:45;3.73;;;2.37;;
11791;SDS011;5953;52.372;9.918;2022-08-21T04:03:13;3.67;;;2.17;;
11791;SDS011;5953;52.372;9.918;2022-08-21T04:05:41;3.97;;;2.57;;
11791;SDS011;5953;52.372;9.918;2022-08-21T04:08:11;4.43;;;2.23;;
11791;SDS011;5953;52.372;9.918;2022-08-21T04:10:40;5.27;;;2.57;;
11791;SDS011;5953;52.372;9.918;2022-08-21T04:13:08;5.47;;;2.60;;
11791;SDS011;5953;52.372;9.918;2022-08-21T04:15:36;3.20;;;2.30;;
11791;SDS011;5953;52.372;9.918;2022-08-21T04:18:06;5.07;;;2.43;;
11791;SDS011;5953;52.372;9.918;2022-08-21T04:20:35;8.80;;;2.57;;
11791;SDS011;5953;52.372;9.918;2022-08-21T04:23:03;5.27;;;2.87;;
11791;SDS011;5953;52.372;9.918;2022-08-21T04:25:31;6.60;;;2.33;;
11791;SDS011;5953;52.372;9.918;2022-08-21T04:27:59;4.83;;;3.27;;
11791;SDS011;5953;52.372;9.918;2022-08-21T04:30:28;4.00;;;2.40;;
11791;SDS011;5953;52.372;9.918;2022-08-21T04:32:56;8.87;;;2.97;;
11791;SDS011;5953;52.372;9.918;2022-08-21T04:35:28;5.00;;;2.40;;
11791;SDS011;5953;52.372;9.918;2022-08-21T04:37:56;3.63;;;2.60;;
11791;SDS011;5953;52.372;9.918;2022-08-21T04:40:25;3.93;;;2.50;;
11791;SDS011;5953;52.372;9.918;2022-08-21T04:42:55;2.67;;;2.43;;
11791;SDS011;5953;52.372;9.918;2022-08-21T04:45:27;5.03;;;2.40;;
11791;SDS011;5953;52.372;9.918;2022-08-21T04:47:57;5.20;;;3.37;;
11791;SDS011;5953;52.372;9.918;2022-08-21T04:50:29;5.63;;;2.80;;
11791;SDS011;5953;52.372;9.918;2022-08-21T04:53:05;4.67;;;3.20;;
11791;SDS011;5953;52.372;9.918;2022-08-21T04:55:43;4.33;;;3.13;;
11791;SDS011;5953;52.372;9.918;2022-08-21T04:58:12;6.97;;;2.83;;
11791;SDS011;5953;52.372;9.918;2022-08-21T05:00:44;4.67;;;3.20;;
11791;SDS011;5953;52.372;9.918;2022-08-21T05:03:13;8.00;;;3.80;;
11791;SDS011;5953;52.372;9.918;2022-08-21T05:05:44;5.00;;;3.17;;
11791;SDS011;5953;52.372;9.918;2022-08-21T05:08:13;4.33;;;3.17;;
11791;SDS011;5953;52.372;9.918;2022-08-21T05:10:43;6.67;;;2.97;;
11791;SDS011;5953;52.372;9.918;2022-08-21T05:13:11;5.60;;;3.40;;
11791;SDS011;5953;52.372;9.918;2022-08-21T05:15:40;8.20;;;3.40;;
11791;SDS011;5953;52.372;9.918;2022-08-21T05:18:09;5.83;;;2.93;;
11791;SDS011;5953;52.372;9.918;2022-08-21T05:20:37;5.97;;;2.90;;
11791;SDS011;5953;52.372;9.918;2022-08-21T05:23:07;5.87;;;3.30;;
11791;SDS011;5953;52.372;9.918;2022-08-21T05:25:36;7.77;;;2.93;;
11791;SDS011;5953;52.372;9.918;2022-08-21T05:28:05;4.67;;;3.53;;
11791;SDS011;5953;52.372;9.918;2022-08-21T05:30:33;7.00;;;3.20;;
11791;SDS011;5953;52.372;9.918;2022-08-21T05:33:02;6.33;;;3.27;;
11791;SDS011;5953;52.372;9.918;2022-08-21T05:35:31;6.70;;;2.93;;
11791;SDS011;5953;52.372;9.918;2022-08-21T05:38:00;6.30;;;3.10;;
11791;SDS011;5953;52.372;9.918;2022-08-21T05:40:29;5.93;;;3.10;;
11791;SDS011;5953;52.372;9.918;2022-08-21T05:42:57;4.10;;;3.00;;
11791;SDS011;5953;52.372;9.918;2022-08-21T05:45:28;4.87;;;3.33;;
11791;SDS011;5953;52.372;9.918;2022-08-21T05:48:09;6.23;;;4.03;;
11791;SDS011;5953;52.372;9.918;2022-08-21T05:50:39;5.53;;;3.80;;
11791;SDS011;5953;52.372;9.918;2022-08-21T05:53:07;4.07;;;3.20;;
11791;SDS011;5953;52.372;9.918;2022-08-21T05:55:38;5.13;;;3.13;;
11791;SDS011;5953;52.372;9.918;2022-08-21T05:58:12;9.67;;;3.57;;
11791;SDS011;5953;52.372;9.918;2022-08-21T06:00:40;7.73;;;3.13;;
11791;SDS011;5953;52.372;9.918;2022-08-21T06:03:12;6.30;;;3.27;;
11791;SDS011;5953;52.372;9.918;2022-08-21T06:05:41;5.10;;;2.90;;
11791;SDS011;5953;52.372;9.918;2022-08-21T06:08:09;4.83;;;3.30;;
11791;SDS011;5953;52.372;9.918;2022-08-21T06:10:39;4.63;;;2.67;;
11791;SDS011;5953;52.372;9.918;2022-08-21T06:13:07;5.03;;;2.43;;
11791;SDS011;5953;52.372;9.918;2022-08-21T06:15:35;5.33;;;3.10;;
11791;SDS011;5953;52.372;9.918;2022-08-21T06:18:03;5.40;;;2.67;;
11791;SDS011;5953;52.372;9.918;2022-08-21T06:20:32;6.23;;;2.90;;
11791;SDS011;5953;52.372;9.918;2022-08-21T06:23:01;4.80;;;2.70;;
11791;SDS011;5953;52.372;9.918;2022-08-21T06:25:29;4.87;;;3.00;;
11791;SDS011;5953;52.372;9.918;2022-08-21T06:28:02;5.93;;;2.70;;
11791;SDS011;5953;52.372;9.918;2022-08-21T06:30:31;4.67;;;2.63;;
11791;SDS011;5953;52.372;9.918;2022-08-21T06:33:00;7.77;;;3.00;;
11791;SDS011;5953;52.372;9.918;2022-08-21T06:35:28;3.60;;;2.70;;
11791;SDS011;5953;52.372;9.918;2022-08-21T06:37:56;7.13;;;2.90;;
11791;SDS011;5953;52.372;9.918;2022-08-21T06:40:25;6.40;;;3.30;;
11791;SDS011;5953;52.372;9.918;2022-08-21T06:42:55;5.83;;;2.70;;
11791;SDS011;5953;52.372;9.918;2022-08-21T06:45:25;6.23;;;3.27;;
11791;SDS011;5953;52.372;9.918;2022-08-21T06:47:56;5.50;;;2.97;;
11791;SDS011;5953;52.372;9.918;2022-08-21T06:50:24;4.03;;;2.40;;
11791;SDS011;5953;52.372;9.918;2022-08-21T06:52:57;5.30;;;2.70;;
11791;SDS011;5953;52.372;9.918;2022-08-21T06:55:26;5.37;;;2.70;;
11791;SDS011;5953;52.372;9.918;2022-08-21T06:57:54;5.07;;;2.53;;
11791;SDS011;5953;52.372;9.918;2022-08-21T07:00:22;5.57;;;2.83;;
11791;SDS011;5953;52.372;9.918;2022-08-21T07:02:52;6.33;;;2.70;;
11791;SDS011;5953;52.372;9.918;2022-08-21T07:05:21;4.23;;;2.53;;
11791;SDS011;5953;52.372;9.918;2022-08-21T07:07:49;7.20;;;2.60;;
11791;SDS011;5953;52.372;9.918;2022-08-21T07:10:17;7.90;;;2.83;;
11791;SDS011;5953;52.372;9.918;2022-08-21T07:12:48;6.70;;;2.83;;
11791;SDS011;5953;52.372;9.918;2022-08-21T07:15:25;5.27;;;2.47;;
11791;SDS011;5953;52.372;9.918;2022-08-21T07:17:56;6.93;;;3.10;;
11791;SDS011;5953;52.372;9.918;2022-08-21T07:20:25;4.80;;;2.50;;
11791;SDS011;5953;52.372;9.918;2022-08-21T07:22:53;4.83;;;2.50;;
11791;SDS011;5953;52.372;9.918;2022-08-21T07:25:22;5.80;;;2.43;;
11791;SDS011;5953;52.372;9.918;2022-08-21T07:27:50;5.03;;;2.70;;
11791;SDS011;5953;52.372;9.918;2022-08-21T07:30:18;6.47;;;2.97;;
11791;SDS011;5953;52.372;9.918;2022-08-21T07:32:46;4.00;;;2.60;;
11791;SDS011;5953;52.372;9.918;2022-08-21T07:35:17;6.10;;;2.80;;
11791;SDS011;5953;52.372;9.918;2022-08-21T07:37:46;5.67;;;3.00;;
11791;SDS011;5953;52.372;9.918;2022-08-21T07:40:14;5.57;;;2.70;;
11791;SDS011;5953;52.372;9.918;2022-08-21T07:42:44;6.83;;;2.70;;
11791;SDS011;5953;52.372;9.918;2022-08-21T07:45:16;7.40;;;2.70;;
11791;SDS011;5953;52.372;9.918;2022-08-21T07:47:45;6.53;;;2.77;;
11791;SDS011;5953;52.372;9.918;2022-08-21T07:50:14;7.67;;;2.77;;
11791;SDS011;5953;52.372;9.918;2022-08-21T07:52:44;4.37;;;2.30;;
11791;SDS011;5953;52.372;9.918;2022-08-21T07:55:13;6.93;;;2.43;;
11791;SDS011;5953;52.372;9.918;2022-08-21T07:57:42;2.67;;;2.13;;
11791;SDS011;5953;52.372;9.918;2022-08-21T08:00:12;4.70;;;2.20;;
11791;SDS011;5953;52.372;9.918;2022-08-21T08:02:43;7.00;;;2.63;;
11791;SDS011;5953;52.372;9.918;2022-08-21T08:05:17;7.07;;;2.60;;
11791;SDS011;5953;52.372;9.918;2022-08-21T08:07:47;6.93;;;2.13;;
11791;SDS011;5953;52.372;9.918;2022-08-21T08:10:16;4.87;;;2.63;;
11791;SDS011;5953;52.372;9.918;2022-08-21T08:12:45;4.83;;;2.50;;
11791;SDS011;5953;52.372;9.918;2022-08-21T08:15:14;4.85;;;2.28;;
11791;SDS011;5953;52.372;9.918;2022-08-21T08:17:43;6.15;;;2.40;;
11791;SDS011;5953;52.372;9.918;2022-08-21T08:20:11;3.55;;;1.75;;
11791;SDS011;5953;52.372;9.918;2022-08-21T08:22:40;8.93;;;2.22;;
11791;SDS011;5953;52.372;9.918;2022-08-21T08:25:17;6.18;;;1.98;;
11791;SDS011;5953;52.372;9.918;2022-08-21T08:27:46;4.65;;;2.20;;
11791;SDS011;5953;52.372;9.918;2022-08-21T08:30:14;6.70;;;1.83;;
11791;SDS011;5953;52.372;9.918;2022-08-21T08:32:44;4.20;;;1.98;;
11791;SDS011;5953;52.372;9.918;2022-08-21T08:35:13;3.83;;;1.90;;
11791;SDS011;5953;52.372;9.918;2022-08-21T08:37:41;4.55;;;2.22;;
11791;SDS011;5953;52.372;9.918;2022-08-21T08:40:20;3.28;;;1.85;;
11791;SDS011;5953;52.372;9.918;2022-08-21T08:42:55;7.32;;;2.58;;
11791;SDS011;5953;52.372;9.918;2022-08-21T08:45:23;4.95;;;2.22;;
11791;SDS011;5953;52.372;9.918;2022-08-21T08:47:53;5.25;;;2.53;;
11791;SDS011;5953;52.372;9.918;2022-08-21T08:50:26;5.13;;;2.53;;
11791;SDS011;5953;52.372;9.918;2022-08-21T08:53:00;3.50;;;2.05;;
11791;SDS011;5953;52.372;9.918;2022-08-21T08:55:34;3.70;;;2.20;;
11791;SDS011;5953;52.372;9.918;2022-08-21T08:58:06;4.03;;;2.17;;
11791;SDS011;5953;52.372;9.918;2022-08-21T09:00:37;5.90;;;2.30;;
11791;SDS011;5953;52.372;9.918;2022-08-21T09:03:05;8.20;;;2.60;;
11791;SDS011;5953;52.372;9.918;2022-08-21T09:05:36;3.78;;;2.05;;
11791;SDS011;5953;52.372;9.918;2022-08-21T09:08:14;4.93;;;2.20;;
11791;SDS011;5953;52.372;9.918;2022-08-21T09:11:02;6.93;;;1.98;;
11791;SDS011;5953;52.372;9.918;2022-08-21T09:13:38;6.07;;;2.47;;
11791;SDS011;5953;52.372;9.918;2022-08-21T09:16:13;4.63;;;2.08;;
11791;SDS011;5953;52.372;9.918;2022-08-21T09:18:51;3.42;;;2.00;;
11791;SDS011;5953;52.372;9.918;2022-08-21T09:21:28;4.43;;;2.17;;
11791;SDS011;5953;52.372;9.918;2022-08-21T09:24:06;4.00;;;2.13;;
11791;SDS011;5953;52.372;9.918;2022-08-21T09:26:50;7.57;;;2.22;;
11791;SDS011;5953;52.372;9.918;2022-08-21T09:29:24;6.43;;;2.10;;
11791;SDS011;5953;52.372;9.918;2022-08-21T09:31:55;3.90;;;2.08;;
11791;SDS011;5953;52.372;9.918;2022-08-21T09:34:24;4.50;;;2.08;;
11791;SDS011;5953;52.372;9.918;2022-08-21T09:36:53;5.00;;;2.22;;
11791;SDS011;5953;52.372;9.918;2022-08-21T09:39:26;5.15;;;2.15;;
11791;SDS011;5953;52.372;9.918;2022-08-21T09:42:08;4.32;;;2.03;;
11791;SDS011;5953;52.372;9.918;2022-08-21T09:44:38;6.28;;;2.15;;
11791;SDS011;5953;52.372;9.918;2022-08-21T09:47:10;4.35;;;2.15;;
11791;SDS011;5953;52.372;9.918;2022-08-21T09:49:41;3.35;;;1.98;;
11791;SDS011;5953;52.372;9.918;2022-08-21T09:52:15;4.22;;;2.05;;
11791;SDS011;5953;52.372;9.918;2022-08-21T09:54:46;5.30;;;2.58;;
11791;SDS011;5953;52.372;9.918;2022-08-21T09:57:19;4.85;;;2.38;;
11791;SDS011;5953;52.372;9.918;2022-08-21T10:00:15;8.35;;;2.28;;
11791;SDS011;5953;52.372;9.918;2022-08-21T10:02:47;4.45;;;2.10;;
11791;SDS011;5953;52.372;9.918;2022-08-21T10:05:16;5.35;;;2.08;;
11791;SDS011;5953;52.372;9.918;2022-08-21T10:07:45;5.40;;;2.05;;
11791;SDS011;5953;52.372;9.918;2022-08-21T10:10:18;6.22;;;2.42;;
11791;SDS011;5953;52.372;9.918;2022-08-21T10:12:52;5.75;;;2.08;;
11791;SDS011;5953;52.372;9.918;2022-08-21T10:15:36;3.17;;;1.80;;
11791;SDS011;5953;52.372;9.918;2022-08-21T10:18:12;7.18;;;2.60;;
11791;SDS011;5953;52.372;9.918;2022-08-21T10:20:50;3.75;;;2.35;;
11791;SDS011;5953;52.372;9.918;2022-08-21T10:23:28;4.28;;;2.10;;
11791;SDS011;5953;52.372;9.918;2022-08-21T10:26:06;4.82;;;2.17;;
11791;SDS011;5953;52.372;9.918;2022-08-21T10:28:47;4.78;;;2.55;;
11791;SDS011;5953;52.372;9.918;2022-08-21T10:31:24;4.93;;;2.30;;
11791;SDS011;5953;52.372;9.918;2022-08-21T10:34:04;3.60;;;2.00;;
11791;SDS011;5953;52.372;9.918;2022-08-21T10:36:43;4.20;;;2.05;;
11791;SDS011;5953;52.372;9.918;2022-08-21T10:39:18;4.93;;;2.00;;
11791;SDS011;5953;52.372;9.918;2022-08-21T10:42:16;3.33;;;2.20;;
11791;SDS011;5953;52.372;9.918;2022-08-21T10:44:58;3.28;;;1.95;;
11791;SDS011;5953;52.372;9.918;2022-08-21T10:47:40;4.22;;;1.95;;
11791;SDS011;5953;52.372;9.918;2022-08-21T10:50:13;6.45;;;2.20;;
11791;SDS011;5953;52.372;9.918;2022-08-21T10:55:56;6.57;;;2.20;;
11791;SDS011;5953;52.372;9.918;2022-08-21T10:58:29;5.50;;;2.17;;
11791;SDS011;5953;52.372;9.918;2022-08-21T11:01:04;6.35;;;2.42;;
11791;SDS011;5953;52.372;9.918;2022-08-21T11:03:41;3.15;;;2.35;;
11791;SDS011;5953;52.372;9.918;2022-08-21T11:06:13;3.47;;;1.80;;
11791;SDS011;5953;52.372;9.918;2022-08-21T11:08:45;3.83;;;1.90;;
11791;SDS011;5953;52.372;9.918;2022-08-21T11:11:18;2.72;;;1.95;;
11791;SDS011;5953;52.372;9.918;2022-08-21T11:13:57;3.33;;;1.75;;
11791;SDS011;5953;52.372;9.918;2022-08-21T11:16:31;5.05;;;2.03;;
11791;SDS011;5953;52.372;9.918;2022-08-21T11:19:05;4.78;;;2.08;;
11791;SDS011;5953;52.372;9.918;2022-08-21T11:21:42;4.30;;;2.28;;
11791;SDS011;5953;52.372;9.918;2022-08-21T11:24:23;3.28;;;2.35;;
11791;SDS011;5953;52.372;9.918;2022-08-21T11:26:54;3.45;;;1.73;;
11791;SDS011;5953;52.372;9.918;2022-08-21T11:29:29;5.43;;;1.90;;
11791;SDS011;5953;52.372;9.918;2022-08-21T11:32:04;4.35;;;1.80;;
11791;SDS011;5953;52.372;9.918;2022-08-21T11:34:47;3.33;;;1.85;;
11791;SDS011;5953;52.372;9.918;2022-08-21T11:37:26;6.05;;;1.95;;
11791;SDS011;5953;52.372;9.918;2022-08-21T11:40:10;2.15;;;1.55;;
11791;SDS011;5953;52.372;9.918;2022-08-21T11:42:49;3.00;;;1.67;;
11791;SDS011;5953;52.372;9.918;2022-08-21T11:45:26;5.25;;;1.60;;
11791;SDS011;5953;52.372;9.918;2022-08-21T11:48:05;5.25;;;2.10;;
11791;SDS011;5953;52.372;9.918;2022-08-21T11:50:40;3.42;;;1.95;;
11791;SDS011;5953;52.372;9.918;2022-08-21T11:53:11;4.28;;;1.88;;
11791;SDS011;5953;52.372;9.918;2022-08-21T11:55:44;2.22;;;1.50;;
11791;SDS011;5953;52.372;9.918;2022-08-21T11:58:16;1.58;;;1.30;;
11791;SDS011;5953;52.372;9.918;2022-08-21T12:00:49;5.03;;;1.90;;
11791;SDS011;5953;52.372;9.918;2022-08-21T12:03:22;3.38;;;1.70;;
11791;SDS011;5953;52.372;9.918;2022-08-21T12:05:54;3.80;;;1.70;;
11791;SDS011;5953;52.372;9.918;2022-08-21T12:08:27;3.50;;;1.65;;
11791;SDS011;5953;52.372;9.918;2022-08-21T12:11:03;2.35;;;1.63;;
11791;SDS011;5953;52.372;9.918;2022-08-21T12:13:34;3.97;;;1.77;;
11791;SDS011;5953;52.372;9.918;2022-08-21T12:16:09;3.50;;;1.63;;
11791;SDS011;5953;52.372;9.918;2022-08-21T12:18:40;2.88;;;1.92;;
11791;SDS011;5953;52.372;9.918;2022-08-21T12:21:22;4.97;;;1.90;;
11791;SDS011;5953;52.372;9.918;2022-08-21T12:24:00;9.07;;;2.05;;
11791;SDS011;5953;52.372;9.918;2022-08-21T12:26:47;4.28;;;2.13;;
11791;SDS011;5953;52.372;9.918;2022-08-21T12:29:21;3.17;;;1.67;;
11791;SDS011;5953;52.372;9.918;2022-08-21T12:31:55;1.88;;;1.48;;
11791;SDS011;5953;52.372;9.918;2022-08-21T12:34:29;3.78;;;1.48;;
11791;SDS011;5953;52.372;9.918;2022-08-21T12:37:02;2.63;;;1.90;;
11791;SDS011;5953;52.372;9.918;2022-08-21T12:39:34;5.07;;;1.67;;
11791;SDS011;5953;52.372;9.918;2022-08-21T12:42:06;2.28;;;1.70;;
11791;SDS011;5953;52.372;9.918;2022-08-21T12:44:45;3.60;;;1.60;;
11791;SDS011;5953;52.372;9.918;2022-08-21T12:47:19;3.63;;;1.60;;
11791;SDS011;5953;52.372;9.918;2022-08-21T12:49:56;6.35;;;1.58;;
11791;SDS011;5953;52.372;9.918;2022-08-21T12:52:29;2.95;;;1.50;;
11791;SDS011;5953;52.372;9.918;2022-08-21T12:55:05;3.80;;;1.80;;
11791;SDS011;5953;52.372;9.918;2022-08-21T12:57:35;1.58;;;1.40;;
11791;SDS011;5953;52.372;9.918;2022-08-21T13:00:05;3.33;;;1.40;;
11791;SDS011;5953;52.372;9.918;2022-08-21T13:02:37;3.88;;;1.80;;
11791;SDS011;5953;52.372;9.918;2022-08-21T13:05:13;4.05;;;1.60;;
11791;SDS011;5953;52.372;9.918;2022-08-21T13:07:46;4.90;;;1.95;;
11791;SDS011;5953;52.372;9.918;2022-08-21T13:10:16;3.45;;;1.40;;
11791;SDS011;5953;52.372;9.918;2022-08-21T13:12:47;3.53;;;1.60;;
11791;SDS011;5953;52.372;9.918;2022-08-21T13:15:22;2.35;;;1.40;;
11791;SDS011;5953;52.372;9.918;2022-08-21T13:17:59;3.15;;;1.70;;
11791;SDS011;5953;52.372;9.918;2022-08-21T13:20:31;3.00;;;1.55;;
11791;SDS011;5953;52.372;9.918;2022-08-21T13:23:01;7.70;;;1.88;;
11791;SDS011;5953;52.372;9.918;2022-08-21T13:25:33;2.53;;;1.42;;
11791;SDS011;5953;52.372;9.918;2022-08-21T13:28:05;5.47;;;1.90;;
11791;SDS011;5953;52.372;9.918;2022-08-21T13:30:38;3.85;;;1.90;;
11791;SDS011;5953;52.372;9.918;2022-08-21T13:33:09;4.65;;;1.80;;
11791;SDS011;5953;52.372;9.918;2022-08-21T13:35:47;1.55;;;1.45;;
11791;SDS011;5953;52.372;9.918;2022-08-21T13:38:17;2.65;;;1.65;;
11791;SDS011;5953;52.372;9.918;2022-08-21T13:40:53;1.77;;;1.50;;
11791;SDS011;5953;52.372;9.918;2022-08-21T13:43:25;2.53;;;1.80;;
11791;SDS011;5953;52.372;9.918;2022-08-21T13:45:55;4.30;;;1.65;;
11791;SDS011;5953;52.372;9.918;2022-08-21T13:48:24;2.95;;;1.45;;
11791;SDS011;5953;52.372;9.918;2022-08-21T13:50:56;2.75;;;1.73;;
11791;SDS011;5953;52.372;9.918;2022-08-21T13:53:28;2.83;;;1.80;;
11791;SDS011;5953;52.372;9.918;2022-08-21T13:55:58;3.42;;;1.85;;
11791;SDS011;5953;52.372;9.918;2022-08-21T13:58:28;3.03;;;1.75;;
11791;SDS011;5953;52.372;9.918;2022-08-21T14:00:57;2.42;;;1.83;;
11791;SDS011;5953;52.372;9.918;2022-08-21T14:03:33;3.88;;;1.80;;
11791;SDS011;5953;52.372;9.918;2022-08-21T14:06:11;2.88;;;1.65;;
11791;SDS011;5953;52.372;9.918;2022-08-21T14:08:41;3.10;;;1.45;;
11791;SDS011;5953;52.372;9.918;2022-08-21T14:11:16;3.58;;;1.90;;
11791;SDS011;5953;52.372;9.918;2022-08-21T14:13:45;3.80;;;1.80;;
11791;SDS011;5953;52.372;9.918;2022-08-21T14:16:17;3.70;;;1.90;;
11791;SDS011;5953;52.372;9.918;2022-08-21T14:18:48;3.58;;;1.63;;
11791;SDS011;5953;52.372;9.918;2022-08-21T14:21:28;3.03;;;1.85;;
11791;SDS011;5953;52.372;9.918;2022-08-21T14:23:59;2.85;;;1.50;;
11791;SDS011;5953;52.372;9.918;2022-08-21T14:26:30;3.78;;;1.70;;
11791;SDS011;5953;52.372;9.918;2022-08-21T14:28:59;3.53;;;1.77;;
11791;SDS011;5953;52.372;9.918;2022-08-21T14:31:35;3.33;;;1.88;;
11791;SDS011;5953;52.372;9.918;2022-08-21T14:34:09;4.38;;;1.95;;
11791;SDS011;5953;52.372;9.918;2022-08-21T14:36:46;2.60;;;1.80;;
11791;SDS011;5953;52.372;9.918;2022-08-21T14:39:15;3.65;;;1.70;;
11791;SDS011;5953;52.372;9.918;2022-08-21T14:41:43;2.83;;;2.00;;
11791;SDS011;5953;52.372;9.918;2022-08-21T14:44:14;3.42;;;1.60;;
11791;SDS011;5953;52.372;9.918;2022-08-21T14:46:43;3.20;;;2.10;;
11791;SDS011;5953;52.372;9.918;2022-08-21T14:49:21;2.17;;;1.90;;
11791;SDS011;5953;52.372;9.918;2022-08-21T14:51:50;3.05;;;1.63;;
11791;SDS011;5953;52.372;9.918;2022-08-21T14:54:23;5.20;;;2.20;;
11791;SDS011;5953;52.372;9.918;2022-08-21T14:56:57;3.55;;;1.77;;
11791;SDS011;5953;52.372;9.918;2022-08-21T14:59:27;4.55;;;1.73;;
11791;SDS011;5953;52.372;9.918;2022-08-21T15:01:56;2.17;;;1.80;;
11791;SDS011;5953;52.372;9.918;2022-08-21T15:04:24;3.50;;;2.08;;
11791;SDS011;5953;52.372;9.918;2022-08-21T15:06:53;3.05;;;1.63;;
11791;SDS011;5953;52.372;9.918;2022-08-21T15:09:21;4.32;;;2.00;;
11791;SDS011;5953;52.372;9.918;2022-08-21T15:11:50;3.08;;;1.70;;
11791;SDS011;5953;52.372;9.918;2022-08-21T15:14:20;3.38;;;1.80;;
11791;SDS011;5953;52.372;9.918;2022-08-21T15:16:51;2.97;;;2.03;;
11791;SDS011;5953;52.372;9.918;2022-08-21T15:19:19;1.90;;;1.60;;
11791;SDS011;5953;52.372;9.918;2022-08-21T15:21:47;3.58;;;2.15;;
11791;SDS011;5953;52.372;9.918;2022-08-21T15:24:16;5.93;;;2.13;;
11791;SDS011;5953;52.372;9.918;2022-08-21T15:26:44;3.45;;;2.00;;
11791;SDS011;5953;52.372;9.918;2022-08-21T15:29:12;3.38;;;1.90;;